Overview Statistics Trail Chart Weather Telemetry Raw packets
 

This is the latest recevied weather packets stored in our database for station/object KC2GYU. If no packets are shown the sender has not sent any weather packets the latest 10 day(s).

<< 14 15 16 17 18 19 20 >>
Time Temp. Humidity Pressure Rain* Wind** Luminosity Snow
1778021824 18.33° C 80% 1012.4 hPa 0 mm - 39 W/m² -
1778021521 18.33° C 79% 1012.1 hPa 0 mm - 46 W/m² -
1778021216 18.33° C 78% 1012.3 hPa 0 mm - 49 W/m² -
1778020915 18.89° C 77% 1012 hPa 0 mm - 72 W/m² -
1778020612 18.89° C 77% 1011.9 hPa 0 mm - 73 W/m² -
1778020326 18.89° C 77% 1012.1 hPa 0 mm - 93 W/m² -
1778020004 18.89° C 77% 1012 hPa 0 mm - 76 W/m² -
1778019701 18.89° C 76% 1012.2 hPa 0 mm - 69 W/m² -
1778019398 19.44° C 75% 1012.1 hPa 0 mm - 96 W/m² -
1778019094 19.44° C 75% 1012 hPa 0 mm - 152 W/m² -
1778018792 19.44° C 74% 1012.2 hPa 0 mm - 243 W/m² -
1778018489 19.44° C 75% 1012.2 hPa 0 mm - 254 W/m² -
1778018187 19.44° C 75% 1012 hPa 0 mm - 167 W/m² -
1778017885 20° C 74% 1011.9 hPa 0 mm - 138 W/m² -
1778017577 20° C 73% 1011.7 hPa 0 mm - 209 W/m² -
1778017274 20.56° C 73% 1011.7 hPa 0 mm - 175 W/m² -
1778016972 20° C 73% 1011.8 hPa 0 mm - 249 W/m² -
1778016668 20.56° C 73% 1011.8 hPa 0 mm - 150 W/m² -
1778016364 20.56° C 72% 1011.5 hPa 0 mm - 264 W/m² -
1778016062 20.56° C 72% 1011.8 hPa 0 mm - 325 W/m² -
1778015758 20.56° C 72% 1011.9 hPa 0 mm - 356 W/m² -
1778015455 21.11° C 72% 1011.5 hPa 0 mm - 319 W/m² -
1778015151 20.56° C 72% 1011.7 hPa 0 mm - 397 W/m² -
1778014849 20.56° C 72% 1011.8 hPa 0 mm - 396 W/m² -
1778014546 21.11° C 71% 1011.7 hPa 0 mm - 342 W/m² -

* Rain latest hour (hover to see other rain measurements)
** Current wind speed in m/s (hover to see current wind gust speed)